sensor_id;sensor_type;location;lat;lon;timestamp;temperature;humidity
47514;DHT22;33951;51.988;5.910;2022-10-18T05:03:05;15.70;99.90
47514;DHT22;33951;51.988;5.910;2022-10-18T05:05:40;15.70;99.90
47514;DHT22;33951;51.988;5.910;2022-10-18T05:08:06;15.70;99.90
47514;DHT22;33951;51.988;5.910;2022-10-18T05:10:38;15.90;99.90
47514;DHT22;33951;51.988;5.910;2022-10-18T05:13:06;15.80;99.90
47514;DHT22;33951;51.988;5.910;2022-10-18T05:15:32;15.70;99.90
47514;DHT22;33951;51.988;5.910;2022-10-18T05:18:00;15.70;99.90
47514;DHT22;33951;51.988;5.910;2022-10-18T05:20:29;15.70;99.90
47514;DHT22;33951;51.988;5.910;2022-10-18T05:22:57;15.70;99.90
47514;DHT22;33951;51.988;5.910;2022-10-18T05:25:42;15.80;99.90
47514;DHT22;33951;51.988;5.910;2022-10-18T05:28:08;15.80;99.90
47514;DHT22;33951;51.988;5.910;2022-10-18T05:31:09;15.80;99.90
47514;DHT22;33951;51.988;5.910;2022-10-18T05:33:43;15.90;99.90
47514;DHT22;33951;51.988;5.910;2022-10-18T05:36:14;15.70;99.90
47514;DHT22;33951;51.988;5.910;2022-10-18T05:38:43;15.60;99.90
47514;DHT22;33951;51.988;5.910;2022-10-18T05:41:58;15.70;99.90
47514;DHT22;33951;51.988;5.910;2022-10-18T05:44:33;15.80;99.90
47514;DHT22;33951;51.988;5.910;2022-10-18T05:47:04;15.70;99.90
47514;DHT22;33951;51.988;5.910;2022-10-18T05:49:39;15.70;99.90
47514;DHT22;33951;51.988;5.910;2022-10-18T05:52:39;15.70;99.90
47514;DHT22;33951;51.988;5.910;2022-10-18T05:55:30;15.80;99.90
47514;DHT22;33951;51.988;5.910;2022-10-18T05:58:05;15.70;99.90
47514;DHT22;33951;51.988;5.910;2022-10-18T06:00:37;15.60;99.90
47514;DHT22;33951;51.988;5.910;2022-10-18T06:03:13;15.40;99.90
47514;DHT22;33951;51.988;5.910;2022-10-18T06:05:44;15.40;99.90
47514;DHT22;33951;51.988;5.910;2022-10-18T06:08:12;15.10;99.90
47514;DHT22;33951;51.988;5.910;2022-10-18T06:10:48;15.10;99.90
47514;DHT22;33951;51.988;5.910;2022-10-18T06:13:19;15.10;99.90
47514;DHT22;33951;51.988;5.910;2022-10-18T06:16:10;14.90;99.90
47514;DHT22;33951;51.988;5.910;2022-10-18T06:18:45;14.90;99.90
47514;DHT22;33951;51.988;5.910;2022-10-18T06:24:27;15.00;99.90
47514;DHT22;33951;51.988;5.910;2022-10-18T06:27:13;15.00;99.90
47514;DHT22;33951;51.988;5.910;2022-10-18T06:29:44;15.00;99.90
47514;DHT22;33951;51.988;5.910;2022-10-18T06:32:10;14.90;99.90
47514;DHT22;33951;51.988;5.910;2022-10-18T06:34:36;14.90;99.90
47514;DHT22;33951;51.988;5.910;2022-10-18T06:37:02;14.80;99.90
47514;DHT22;33951;51.988;5.910;2022-10-18T06:39:50;14.70;99.90
47514;DHT22;33951;51.988;5.910;2022-10-18T06:42:49;14.80;99.90
47514;DHT22;33951;51.988;5.910;2022-10-18T06:48:19;14.70;99.90
47514;DHT22;33951;51.988;5.910;2022-10-18T06:51:19;14.80;99.90
47514;DHT22;33951;51.988;5.910;2022-10-18T06:54:14;14.80;99.90
47514;DHT22;33951;51.988;5.910;2022-10-18T06:59:30;14.70;99.90
47514;DHT22;33951;51.988;5.910;2022-10-18T07:01:56;14.70;99.90
47514;DHT22;33951;51.988;5.910;2022-10-18T07:04:29;14.60;99.90
47514;DHT22;33951;51.988;5.910;2022-10-18T07:07:16;14.50;99.90
47514;DHT22;33951;51.988;5.910;2022-10-18T07:09:49;14.50;99.90
47514;DHT22;33951;51.988;5.910;2022-10-18T07:12:18;14.60;99.90
47514;DHT22;33951;51.988;5.910;2022-10-18T07:14:46;14.60;99.90
47514;DHT22;33951;51.988;5.910;2022-10-18T07:21:36;14.60;99.90
47514;DHT22;33951;51.988;5.910;2022-10-18T07:24:42;14.50;99.90
47514;DHT22;33951;51.988;5.910;2022-10-18T07:27:23;14.50;99.90
47514;DHT22;33951;51.988;5.910;2022-10-18T07:29:56;14.50;99.90
47514;DHT22;33951;51.988;5.910;2022-10-18T07:32:27;14.50;99.90
47514;DHT22;33951;51.988;5.910;2022-10-18T07:34:58;14.50;99.90
47514;DHT22;33951;51.988;5.910;2022-10-18T07:37:43;14.40;99.90
47514;DHT22;33951;51.988;5.910;2022-10-18T07:40:20;14.40;99.90
47514;DHT22;33951;51.988;5.910;2022-10-18T07:43:03;14.30;99.90
47514;DHT22;33951;51.988;5.910;2022-10-18T07:46:03;14.40;99.90
47514;DHT22;33951;51.988;5.910;2022-10-18T07:48:44;14.40;99.90
47514;DHT22;33951;51.988;5.910;2022-10-18T07:54:42;14.40;99.90
47514;DHT22;33951;51.988;5.910;2022-10-18T07:57:47;14.60;99.90
47514;DHT22;33951;51.988;5.910;2022-10-18T08:00:41;14.50;99.90
47514;DHT22;33951;51.988;5.910;2022-10-18T08:03:14;14.50;99.90
47514;DHT22;33951;51.988;5.910;2022-10-18T08:09:45;14.40;99.90
47514;DHT22;33951;51.988;5.910;2022-10-18T08:16:03;14.50;99.90
47514;DHT22;33951;51.988;5.910;2022-10-18T08:18:31;14.60;99.90
47514;DHT22;33951;51.988;5.910;2022-10-18T08:24:18;14.70;99.90
47514;DHT22;33951;51.988;5.910;2022-10-18T08:32:55;14.60;99.90
47514;DHT22;33951;51.988;5.910;2022-10-18T08:35:24;14.60;99.90
47514;DHT22;33951;51.988;5.910;2022-10-18T08:38:02;14.60;99.90
47514;DHT22;33951;51.988;5.910;2022-10-18T08:40:43;14.60;99.90
47514;DHT22;33951;51.988;5.910;2022-10-18T09:00:19;15.00;99.90
47514;DHT22;33951;51.988;5.910;2022-10-18T09:52:10;15.80;99.90
47514;DHT22;33951;51.988;5.910;2022-10-18T09:54:38;16.00;99.90
47514;DHT22;33951;51.988;5.910;2022-10-18T09:59:49;16.40;99.90
47514;DHT22;33951;51.988;5.910;2022-10-18T10:02:17;16.40;99.90
47514;DHT22;33951;51.988;5.910;2022-10-18T10:04:45;16.50;99.90
47514;DHT22;33951;51.988;5.910;2022-10-18T10:07:19;16.60;99.90
47514;DHT22;33951;51.988;5.910;2022-10-18T10:12:33;16.70;99.90
47514;DHT22;33951;51.988;5.910;2022-10-18T10:15:17;17.00;99.90
47514;DHT22;33951;51.988;5.910;2022-10-18T10:17:57;17.00;99.90
47514;DHT22;33951;51.988;5.910;2022-10-18T10:20:36;17.10;99.90
47514;DHT22;33951;51.988;5.910;2022-10-18T10:23:28;17.30;99.90
47514;DHT22;33951;51.988;5.910;2022-10-18T10:26:27;17.50;99.90
47514;DHT22;33951;51.988;5.910;2022-10-18T10:29:02;17.70;99.90
47514;DHT22;33951;51.988;5.910;2022-10-18T10:31:29;17.70;99.90
47514;DHT22;33951;51.988;5.910;2022-10-18T10:36:49;17.50;99.90
47514;DHT22;33951;51.988;5.910;2022-10-18T10:39:18;17.70;99.90
47514;DHT22;33951;51.988;5.910;2022-10-18T10:41:53;17.80;99.90
47514;DHT22;33951;51.988;5.910;2022-10-18T10:44:24;17.80;99.90
47514;DHT22;33951;51.988;5.910;2022-10-18T10:46:51;18.00;99.90
47514;DHT22;33951;51.988;5.910;2022-10-18T10:49:19;18.00;99.90
47514;DHT22;33951;51.988;5.910;2022-10-18T10:51:53;18.20;99.90
47514;DHT22;33951;51.988;5.910;2022-10-18T10:54:21;18.40;99.90
47514;DHT22;33951;51.988;5.910;2022-10-18T10:57:16;18.40;99.90
47514;DHT22;33951;51.988;5.910;2022-10-18T10:59:50;18.40;99.90
47514;DHT22;33951;51.988;5.910;2022-10-18T11:04:52;18.50;99.90
47514;DHT22;33951;51.988;5.910;2022-10-18T11:10:16;18.60;99.90
47514;DHT22;33951;51.988;5.910;2022-10-18T11:15:58;18.50;99.90
47514;DHT22;33951;51.988;5.910;2022-10-18T11:18:33;18.60;99.90
47514;DHT22;33951;51.988;5.910;2022-10-18T11:21:20;18.80;99.90
47514;DHT22;33951;51.988;5.910;2022-10-18T11:23:48;18.80;99.90
47514;DHT22;33951;51.988;5.910;2022-10-18T11:32:52;19.10;99.90
47514;DHT22;33951;51.988;5.910;2022-10-18T11:49:55;19.50;99.90
47514;DHT22;33951;51.988;5.910;2022-10-18T11:58:21;19.70;99.90
47514;DHT22;33951;51.988;5.910;2022-10-18T12:01:00;19.80;99.90
47514;DHT22;33951;51.988;5.910;2022-10-18T12:06:29;20.10;99.90
47514;DHT22;33951;51.988;5.910;2022-10-18T12:09:01;20.30;99.90
47514;DHT22;33951;51.988;5.910;2022-10-18T12:11:35;20.40;99.90
47514;DHT22;33951;51.988;5.910;2022-10-18T12:14:09;20.40;99.90
47514;DHT22;33951;51.988;5.910;2022-10-18T12:16:39;20.20;99.90
47514;DHT22;33951;51.988;5.910;2022-10-18T12:19:17;20.10;99.90
47514;DHT22;33951;51.988;5.910;2022-10-18T12:21:44;19.90;99.90
47514;DHT22;33951;51.988;5.910;2022-10-18T12:24:16;20.00;99.90
47514;DHT22;33951;51.988;5.910;2022-10-18T12:26:52;20.00;99.90
47514;DHT22;33951;51.988;5.910;2022-10-18T12:32:23;20.30;99.90
47514;DHT22;33951;51.988;5.910;2022-10-18T12:34:57;20.30;99.90
47514;DHT22;33951;51.988;5.910;2022-10-18T12:39:59;20.30;99.90
47514;DHT22;33951;51.988;5.910;2022-10-18T12:42:31;20.30;99.90
47514;DHT22;33951;51.988;5.910;2022-10-18T12:45:16;20.40;99.90
47514;DHT22;33951;51.988;5.910;2022-10-18T12:47:43;20.30;99.90
47514;DHT22;33951;51.988;5.910;2022-10-18T12:50:38;20.30;99.90
47514;DHT22;33951;51.988;5.910;2022-10-18T13:04:48;20.80;99.90
47514;DHT22;33951;51.988;5.910;2022-10-18T13:07:32;20.90;99.90
47514;DHT22;33951;51.988;5.910;2022-10-18T13:26:29;20.70;99.90
47514;DHT22;33951;51.988;5.910;2022-10-18T13:29:37;20.60;99.90
47514;DHT22;33951;51.988;5.910;2022-10-18T13:32:30;20.70;99.90
47514;DHT22;33951;51.988;5.910;2022-10-18T13:34:56;21.10;99.90
47514;DHT22;33951;51.988;5.910;2022-10-18T13:41:24;21.20;99.90
47514;DHT22;33951;51.988;5.910;2022-10-18T14:05:04;21.40;99.90
47514;DHT22;33951;51.988;5.910;2022-10-18T14:08:17;21.10;99.90
47514;DHT22;33951;51.988;5.910;2022-10-18T14:29:42;22.60;99.90
47514;DHT22;33951;51.988;5.910;2022-10-18T14:35:32;22.50;99.60
47514;DHT22;33951;51.988;5.910;2022-10-18T14:38:32;22.60;99.90
47514;DHT22;33951;51.988;5.910;2022-10-18T14:50:38;22.00;99.90
47514;DHT22;33951;51.988;5.910;2022-10-18T14:53:36;21.90;99.90
47514;DHT22;33951;51.988;5.910;2022-10-18T14:56:35;21.70;99.90
47514;DHT22;33951;51.988;5.910;2022-10-18T14:59:05;21.50;99.90
47514;DHT22;33951;51.988;5.910;2022-10-18T15:08:59;20.80;99.90
47514;DHT22;33951;51.988;5.910;2022-10-18T15:11:53;20.70;99.90
47514;DHT22;33951;51.988;5.910;2022-10-18T15:18:12;19.90;99.90
47514;DHT22;33951;51.988;5.910;2022-10-18T15:40:41;19.10;99.90
47514;DHT22;33951;51.988;5.910;2022-10-18T15:50:52;19.10;99.90
47514;DHT22;33951;51.988;5.910;2022-10-18T15:53:28;19.00;99.90
47514;DHT22;33951;51.988;5.910;2022-10-18T16:02:15;18.70;99.90
47514;DHT22;33951;51.988;5.910;2022-10-18T17:21:11;15.80;99.90
47514;DHT22;33951;51.988;5.910;2022-10-18T17:30:32;15.50;99.90
47514;DHT22;33951;51.988;5.910;2022-10-18T17:36:53;15.50;99.90
47514;DHT22;33951;51.988;5.910;2022-10-18T17:39:28;15.20;99.90
47514;DHT22;33951;51.988;5.910;2022-10-18T17:42:22;15.10;99.90
47514;DHT22;33951;51.988;5.910;2022-10-18T17:45:08;15.00;99.90
47514;DHT22;33951;51.988;5.910;2022-10-18T17:47:46;14.80;99.90
47514;DHT22;33951;51.988;5.910;2022-10-18T17:50:37;14.60;99.90
47514;DHT22;33951;51.988;5.910;2022-10-18T19:52:31;13.00;99.90
47514;DHT22;33951;51.988;5.910;2022-10-18T19:55:05;13.00;99.90
47514;DHT22;33951;51.988;5.910;2022-10-18T20:01:13;12.90;99.90
47514;DHT22;33951;51.988;5.910;2022-10-18T20:03:47;12.90;99.90
47514;DHT22;33951;51.988;5.910;2022-10-18T20:06:33;12.90;99.90
47514;DHT22;33951;51.988;5.910;2022-10-18T20:09:33;12.80;99.90
47514;DHT22;33951;51.988;5.910;2022-10-18T20:12:09;12.80;99.90
47514;DHT22;33951;51.988;5.910;2022-10-18T20:14:37;12.60;99.90
47514;DHT22;33951;51.988;5.910;2022-10-18T20:17:12;12.60;99.90
47514;DHT22;33951;51.988;5.910;2022-10-18T20:19:43;12.60;99.90
47514;DHT22;33951;51.988;5.910;2022-10-18T20:22:17;12.60;99.90
47514;DHT22;33951;51.988;5.910;2022-10-18T20:24:48;12.50;99.90
47514;DHT22;33951;51.988;5.910;2022-10-18T20:27:22;12.50;99.90
47514;DHT22;33951;51.988;5.910;2022-10-18T20:29:48;12.70;99.90
47514;DHT22;33951;51.988;5.910;2022-10-18T20:32:36;12.60;99.90
47514;DHT22;33951;51.988;5.910;2022-10-18T20:35:51;12.60;99.90
47514;DHT22;33951;51.988;5.910;2022-10-18T20:38:48;12.60;99.90
47514;DHT22;33951;51.988;5.910;2022-10-18T20:41:38;12.60;99.90
47514;DHT22;33951;51.988;5.910;2022-10-18T20:44:35;12.70;99.90
47514;DHT22;33951;51.988;5.910;2022-10-18T20:47:07;12.70;99.90
47514;DHT22;33951;51.988;5.910;2022-10-18T20:49:44;12.70;99.90
47514;DHT22;33951;51.988;5.910;2022-10-18T20:52:19;12.70;99.90
47514;DHT22;33951;51.988;5.910;2022-10-18T20:58:10;12.70;99.90
47514;DHT22;33951;51.988;5.910;2022-10-18T21:03:45;12.60;99.90
47514;DHT22;33951;51.988;5.910;2022-10-18T21:06:40;12.50;99.90
47514;DHT22;33951;51.988;5.910;2022-10-18T21:09:32;12.60;99.90
47514;DHT22;33951;51.988;5.910;2022-10-18T21:12:04;12.50;99.90
47514;DHT22;33951;51.988;5.910;2022-10-18T21:14:45;12.50;99.90
47514;DHT22;33951;51.988;5.910;2022-10-18T21:17:16;12.40;99.90
47514;DHT22;33951;51.988;5.910;2022-10-18T21:19:53;12.40;99.90
47514;DHT22;33951;51.988;5.910;2022-10-18T21:22:30;12.30;99.90
47514;DHT22;33951;51.988;5.910;2022-10-18T21:25:09;12.30;99.90
47514;DHT22;33951;51.988;5.910;2022-10-18T21:27:42;12.30;99.90
47514;DHT22;33951;51.988;5.910;2022-10-18T21:30:09;12.30;99.90
47514;DHT22;33951;51.988;5.910;2022-10-18T21:32:38;12.30;99.90
47514;DHT22;33951;51.988;5.910;2022-10-18T21:35:12;12.10;99.90
47514;DHT22;33951;51.988;5.910;2022-10-18T21:37:43;12.10;99.90
47514;DHT22;33951;51.988;5.910;2022-10-18T21:40:12;12.10;99.90
47514;DHT22;33951;51.988;5.910;2022-10-18T21:42:37;12.00;99.90
47514;DHT22;33951;51.988;5.910;2022-10-18T21:45:08;12.00;99.90
47514;DHT22;33951;51.988;5.910;2022-10-18T21:47:34;12.00;99.90
47514;DHT22;33951;51.988;5.910;2022-10-18T21:50:20;12.00;99.90
47514;DHT22;33951;51.988;5.910;2022-10-18T21:55:53;11.90;99.90
47514;DHT22;33951;51.988;5.910;2022-10-18T21:58:19;11.80;99.90
47514;DHT22;33951;51.988;5.910;2022-10-18T22:00:53;11.80;99.90
47514;DHT22;33951;51.988;5.910;2022-10-18T22:03:21;11.70;99.90
47514;DHT22;33951;51.988;5.910;2022-10-18T22:06:30;11.80;99.90
47514;DHT22;33951;51.988;5.910;2022-10-18T22:09:27;11.90;99.90
47514;DHT22;33951;51.988;5.910;2022-10-18T22:11:55;11.80;99.90
47514;DHT22;33951;51.988;5.910;2022-10-18T22:14:27;11.80;99.90
47514;DHT22;33951;51.988;5.910;2022-10-18T22:17:00;11.70;99.90
47514;DHT22;33951;51.988;5.910;2022-10-18T22:19:33;11.70;99.90
47514;DHT22;33951;51.988;5.910;2022-10-18T22:25:36;11.60;99.90
47514;DHT22;33951;51.988;5.910;2022-10-18T22:28:19;11.60;99.90
47514;DHT22;33951;51.988;5.910;2022-10-18T22:30:57;11.50;99.90
47514;DHT22;33951;51.988;5.910;2022-10-18T22:33:23;11.40;99.90
47514;DHT22;33951;51.988;5.910;2022-10-18T22:35:59;11.30;99.90
47514;DHT22;33951;51.988;5.910;2022-10-18T22:38:40;11.30;99.90
47514;DHT22;33951;51.988;5.910;2022-10-18T22:41:17;11.30;99.90
47514;DHT22;33951;51.988;5.910;2022-10-18T22:43:44;11.30;99.90
47514;DHT22;33951;51.988;5.910;2022-10-18T22:46:22;11.20;99.90
47514;DHT22;33951;51.988;5.910;2022-10-18T23:03:04;11.40;99.90
47514;DHT22;33951;51.988;5.910;2022-10-18T23:05:56;11.40;99.90
47514;DHT22;33951;51.988;5.910;2022-10-18T23:19:29;11.30;99.90
47514;DHT22;33951;51.988;5.910;2022-10-18T23:22:07;11.40;99.90
47514;DHT22;33951;51.988;5.910;2022-10-18T23:31:28;11.30;99.90
47514;DHT22;33951;51.988;5.910;2022-10-18T23:37:56;11.30;99.90
47514;DHT22;33951;51.988;5.910;2022-10-18T23:41:17;11.30;99.90
47514;DHT22;33951;51.988;5.910;2022-10-18T23:54:44;11.00;99.90
47514;DHT22;33951;51.988;5.910;2022-10-18T23:57:46;11.00;99.90
